sensor_id;sensor_type;location;lat;lon;timestamp;P1;durP1;ratioP1;P2;durP2;ratioP2
4305;SDS011;2166;49.926;8.608;2023-05-14T00:00:44;13.40;;;9.43;;
4305;SDS011;2166;49.926;8.608;2023-05-14T00:03:13;11.15;;;10.05;;
4305;SDS011;2166;49.926;8.608;2023-05-14T00:05:42;12.07;;;9.68;;
4305;SDS011;2166;49.926;8.608;2023-05-14T00:08:12;10.32;;;8.77;;
4305;SDS011;2166;49.926;8.608;2023-05-14T00:10:42;10.45;;;8.82;;
4305;SDS011;2166;49.926;8.608;2023-05-14T00:13:11;10.98;;;8.63;;
4305;SDS011;2166;49.926;8.608;2023-05-14T00:15:39;13.20;;;9.15;;
4305;SDS011;2166;49.926;8.608;2023-05-14T00:18:08;11.90;;;8.85;;
4305;SDS011;2166;49.926;8.608;2023-05-14T00:20:41;13.43;;;9.05;;
4305;SDS011;2166;49.926;8.608;2023-05-14T00:23:47;15.35;;;11.48;;
4305;SDS011;2166;49.926;8.608;2023-05-14T00:26:16;16.35;;;13.07;;
4305;SDS011;2166;49.926;8.608;2023-05-14T00:28:46;17.10;;;14.05;;
4305;SDS011;2166;49.926;8.608;2023-05-14T00:31:15;22.50;;;13.20;;
4305;SDS011;2166;49.926;8.608;2023-05-14T00:33:44;17.80;;;13.27;;
4305;SDS011;2166;49.926;8.608;2023-05-14T00:36:13;14.20;;;12.05;;
4305;SDS011;2166;49.926;8.608;2023-05-14T00:38:42;13.55;;;10.55;;
4305;SDS011;2166;49.926;8.608;2023-05-14T00:41:12;12.23;;;10.63;;
4305;SDS011;2166;49.926;8.608;2023-05-14T00:43:41;11.85;;;10.75;;
4305;SDS011;2166;49.926;8.608;2023-05-14T00:46:12;16.30;;;11.18;;
4305;SDS011;2166;49.926;8.608;2023-05-14T00:48:44;14.00;;;11.30;;
4305;SDS011;2166;49.926;8.608;2023-05-14T00:51:13;12.25;;;10.93;;
4305;SDS011;2166;49.926;8.608;2023-05-14T00:53:42;15.60;;;12.82;;
4305;SDS011;2166;49.926;8.608;2023-05-14T00:56:14;12.95;;;10.73;;
4305;SDS011;2166;49.926;8.608;2023-05-14T00:58:43;14.02;;;11.35;;
4305;SDS011;2166;49.926;8.608;2023-05-14T01:01:12;13.88;;;12.07;;
4305;SDS011;2166;49.926;8.608;2023-05-14T01:03:42;13.85;;;10.45;;
4305;SDS011;2166;49.926;8.608;2023-05-14T01:06:14;14.80;;;10.35;;
4305;SDS011;2166;49.926;8.608;2023-05-14T01:08:49;12.77;;;11.20;;
4305;SDS011;2166;49.926;8.608;2023-05-14T01:11:29;12.75;;;11.40;;
4305;SDS011;2166;49.926;8.608;2023-05-14T01:14:02;12.35;;;10.88;;
4305;SDS011;2166;49.926;8.608;2023-05-14T01:16:40;13.07;;;11.68;;
4305;SDS011;2166;49.926;8.608;2023-05-14T01:19:15;18.25;;;12.60;;
4305;SDS011;2166;49.926;8.608;2023-05-14T01:21:51;14.82;;;13.07;;
4305;SDS011;2166;49.926;8.608;2023-05-14T01:24:38;14.85;;;13.32;;
4305;SDS011;2166;49.926;8.608;2023-05-14T01:27:09;14.60;;;11.25;;
4305;SDS011;2166;49.926;8.608;2023-05-14T01:29:51;12.75;;;11.45;;
4305;SDS011;2166;49.926;8.608;2023-05-14T01:34:53;12.98;;;11.52;;
4305;SDS011;2166;49.926;8.608;2023-05-14T01:37:25;14.05;;;11.75;;
4305;SDS011;2166;49.926;8.608;2023-05-14T01:39:56;12.70;;;11.48;;
4305;SDS011;2166;49.926;8.608;2023-05-14T01:42:27;15.15;;;12.27;;
4305;SDS011;2166;49.926;8.608;2023-05-14T01:44:56;15.68;;;12.95;;
4305;SDS011;2166;49.926;8.608;2023-05-14T01:47:26;19.20;;;12.90;;
4305;SDS011;2166;49.926;8.608;2023-05-14T01:49:54;15.38;;;13.77;;
4305;SDS011;2166;49.926;8.608;2023-05-14T01:52:27;14.95;;;12.43;;
4305;SDS011;2166;49.926;8.608;2023-05-14T01:54:57;16.42;;;11.82;;
4305;SDS011;2166;49.926;8.608;2023-05-14T01:57:26;17.60;;;13.02;;
4305;SDS011;2166;49.926;8.608;2023-05-14T01:59:54;17.33;;;13.13;;
4305;SDS011;2166;49.926;8.608;2023-05-14T02:02:23;21.25;;;13.18;;
4305;SDS011;2166;49.926;8.608;2023-05-14T02:04:52;16.08;;;14.07;;
4305;SDS011;2166;49.926;8.608;2023-05-14T02:07:20;18.95;;;14.15;;
4305;SDS011;2166;49.926;8.608;2023-05-14T02:09:52;16.75;;;12.93;;
4305;SDS011;2166;49.926;8.608;2023-05-14T02:12:21;17.20;;;13.00;;
4305;SDS011;2166;49.926;8.608;2023-05-14T02:14:50;14.05;;;12.65;;
4305;SDS011;2166;49.926;8.608;2023-05-14T02:17:19;16.83;;;12.50;;
4305;SDS011;2166;49.926;8.608;2023-05-14T02:19:48;15.38;;;12.15;;
4305;SDS011;2166;49.926;8.608;2023-05-14T02:22:16;17.63;;;14.55;;
4305;SDS011;2166;49.926;8.608;2023-05-14T02:24:45;14.63;;;13.07;;
4305;SDS011;2166;49.926;8.608;2023-05-14T02:27:19;15.30;;;13.65;;
4305;SDS011;2166;49.926;8.608;2023-05-14T02:29:47;17.15;;;13.82;;
4305;SDS011;2166;49.926;8.608;2023-05-14T02:32:18;20.38;;;15.18;;
4305;SDS011;2166;49.926;8.608;2023-05-14T02:34:47;20.33;;;14.00;;
4305;SDS011;2166;49.926;8.608;2023-05-14T02:37:15;17.10;;;14.00;;
4305;SDS011;2166;49.926;8.608;2023-05-14T02:39:44;16.02;;;13.35;;
4305;SDS011;2166;49.926;8.608;2023-05-14T02:42:14;16.60;;;14.80;;
4305;SDS011;2166;49.926;8.608;2023-05-14T02:44:44;19.23;;;13.73;;
4305;SDS011;2166;49.926;8.608;2023-05-14T02:47:13;16.98;;;13.77;;
4305;SDS011;2166;49.926;8.608;2023-05-14T02:49:41;15.82;;;14.15;;
4305;SDS011;2166;49.926;8.608;2023-05-14T02:52:10;15.90;;;14.15;;
4305;SDS011;2166;49.926;8.608;2023-05-14T02:54:39;18.88;;;15.43;;
4305;SDS011;2166;49.926;8.608;2023-05-14T02:57:08;16.67;;;14.90;;
4305;SDS011;2166;49.926;8.608;2023-05-14T02:59:37;20.30;;;17.65;;
4305;SDS011;2166;49.926;8.608;2023-05-14T03:02:08;21.77;;;14.98;;
4305;SDS011;2166;49.926;8.608;2023-05-14T03:04:37;19.33;;;14.80;;
4305;SDS011;2166;49.926;8.608;2023-05-14T03:07:07;15.95;;;14.25;;
4305;SDS011;2166;49.926;8.608;2023-05-14T03:09:36;19.40;;;14.60;;
4305;SDS011;2166;49.926;8.608;2023-05-14T03:12:06;20.50;;;14.68;;
4305;SDS011;2166;49.926;8.608;2023-05-14T03:14:35;20.90;;;15.77;;
4305;SDS011;2166;49.926;8.608;2023-05-14T03:17:03;21.90;;;15.18;;
4305;SDS011;2166;49.926;8.608;2023-05-14T03:19:34;21.13;;;15.75;;
4305;SDS011;2166;49.926;8.608;2023-05-14T03:22:05;21.25;;;15.80;;
4305;SDS011;2166;49.926;8.608;2023-05-14T03:24:34;21.52;;;15.95;;
4305;SDS011;2166;49.926;8.608;2023-05-14T03:27:03;18.45;;;14.98;;
4305;SDS011;2166;49.926;8.608;2023-05-14T03:29:33;17.33;;;14.95;;
4305;SDS011;2166;49.926;8.608;2023-05-14T03:32:01;18.58;;;13.48;;
4305;SDS011;2166;49.926;8.608;2023-05-14T03:34:30;15.48;;;13.90;;
4305;SDS011;2166;49.926;8.608;2023-05-14T03:37:00;18.92;;;15.95;;
4305;SDS011;2166;49.926;8.608;2023-05-14T03:39:28;18.02;;;15.80;;
4305;SDS011;2166;49.926;8.608;2023-05-14T03:41:57;18.15;;;16.10;;
4305;SDS011;2166;49.926;8.608;2023-05-14T03:44:26;21.13;;;16.90;;
4305;SDS011;2166;49.926;8.608;2023-05-14T03:46:55;18.52;;;16.48;;
4305;SDS011;2166;49.926;8.608;2023-05-14T03:49:25;21.20;;;17.92;;
4305;SDS011;2166;49.926;8.608;2023-05-14T03:51:55;21.60;;;17.40;;
4305;SDS011;2166;49.926;8.608;2023-05-14T03:54:26;21.90;;;18.17;;
4305;SDS011;2166;49.926;8.608;2023-05-14T03:56:54;18.40;;;16.50;;
4305;SDS011;2166;49.926;8.608;2023-05-14T03:59:23;19.38;;;16.77;;
4305;SDS011;2166;49.926;8.608;2023-05-14T04:01:52;19.48;;;17.30;;
4305;SDS011;2166;49.926;8.608;2023-05-14T04:04:21;22.38;;;16.60;;
4305;SDS011;2166;49.926;8.608;2023-05-14T04:06:50;19.75;;;16.20;;
4305;SDS011;2166;49.926;8.608;2023-05-14T04:09:18;17.95;;;16.13;;
4305;SDS011;2166;49.926;8.608;2023-05-14T04:11:48;18.05;;;15.90;;
4305;SDS011;2166;49.926;8.608;2023-05-14T04:14:17;17.48;;;14.77;;
4305;SDS011;2166;49.926;8.608;2023-05-14T04:16:46;15.55;;;13.82;;
4305;SDS011;2166;49.926;8.608;2023-05-14T04:19:15;19.50;;;14.55;;
4305;SDS011;2166;49.926;8.608;2023-05-14T04:21:44;16.58;;;14.23;;
4305;SDS011;2166;49.926;8.608;2023-05-14T04:24:12;14.27;;;12.20;;
4305;SDS011;2166;49.926;8.608;2023-05-14T04:26:40;15.35;;;11.93;;
4305;SDS011;2166;49.926;8.608;2023-05-14T04:29:11;13.43;;;11.70;;
4305;SDS011;2166;49.926;8.608;2023-05-14T04:31:40;12.18;;;11.00;;
4305;SDS011;2166;49.926;8.608;2023-05-14T04:34:08;12.05;;;10.85;;
4305;SDS011;2166;49.926;8.608;2023-05-14T04:36:36;13.18;;;9.38;;
4305;SDS011;2166;49.926;8.608;2023-05-14T04:39:05;12.00;;;8.80;;
4305;SDS011;2166;49.926;8.608;2023-05-14T04:41:35;10.73;;;8.32;;
4305;SDS011;2166;49.926;8.608;2023-05-14T04:44:04;10.43;;;8.90;;
4305;SDS011;2166;49.926;8.608;2023-05-14T04:46:35;10.05;;;8.93;;
4305;SDS011;2166;49.926;8.608;2023-05-14T04:49:03;9.43;;;8.45;;
4305;SDS011;2166;49.926;8.608;2023-05-14T04:51:32;13.57;;;9.20;;
4305;SDS011;2166;49.926;8.608;2023-05-14T04:54:01;10.90;;;7.93;;
4305;SDS011;2166;49.926;8.608;2023-05-14T04:56:30;13.00;;;10.25;;
4305;SDS011;2166;49.926;8.608;2023-05-14T04:58:58;13.27;;;9.25;;
4305;SDS011;2166;49.926;8.608;2023-05-14T05:01:27;9.05;;;8.20;;
4305;SDS011;2166;49.926;8.608;2023-05-14T05:03:57;12.20;;;9.07;;
4305;SDS011;2166;49.926;8.608;2023-05-14T05:06:26;10.00;;;8.27;;
4305;SDS011;2166;49.926;8.608;2023-05-14T05:08:54;10.70;;;8.85;;
4305;SDS011;2166;49.926;8.608;2023-05-14T05:11:27;14.35;;;8.20;;
4305;SDS011;2166;49.926;8.608;2023-05-14T05:13:56;10.18;;;8.23;;
4305;SDS011;2166;49.926;8.608;2023-05-14T05:16:25;8.32;;;7.53;;
4305;SDS011;2166;49.926;8.608;2023-05-14T05:18:54;10.10;;;7.28;;
4305;SDS011;2166;49.926;8.608;2023-05-14T05:21:24;7.32;;;6.63;;
4305;SDS011;2166;49.926;8.608;2023-05-14T05:23:54;8.88;;;7.57;;
4305;SDS011;2166;49.926;8.608;2023-05-14T05:26:23;14.73;;;6.15;;
4305;SDS011;2166;49.926;8.608;2023-05-14T05:28:52;6.75;;;6.15;;
4305;SDS011;2166;49.926;8.608;2023-05-14T05:31:23;9.10;;;6.72;;
4305;SDS011;2166;49.926;8.608;2023-05-14T05:33:51;8.63;;;6.60;;
4305;SDS011;2166;49.926;8.608;2023-05-14T05:36:20;7.78;;;5.97;;
4305;SDS011;2166;49.926;8.608;2023-05-14T05:38:51;6.25;;;5.07;;
4305;SDS011;2166;49.926;8.608;2023-05-14T05:41:19;40.63;;;6.72;;
4305;SDS011;2166;49.926;8.608;2023-05-14T05:43:48;9.43;;;5.93;;
4305;SDS011;2166;49.926;8.608;2023-05-14T05:46:17;8.70;;;6.03;;
4305;SDS011;2166;49.926;8.608;2023-05-14T05:48:46;5.50;;;4.57;;
4305;SDS011;2166;49.926;8.608;2023-05-14T05:51:14;6.90;;;5.50;;
4305;SDS011;2166;49.926;8.608;2023-05-14T05:53:43;6.35;;;4.80;;
4305;SDS011;2166;49.926;8.608;2023-05-14T05:56:13;5.10;;;4.60;;
4305;SDS011;2166;49.926;8.608;2023-05-14T05:58:41;6.32;;;5.45;;
4305;SDS011;2166;49.926;8.608;2023-05-14T06:01:10;6.25;;;5.63;;
4305;SDS011;2166;49.926;8.608;2023-05-14T06:03:38;6.50;;;5.10;;
4305;SDS011;2166;49.926;8.608;2023-05-14T06:06:08;6.13;;;4.57;;
4305;SDS011;2166;49.926;8.608;2023-05-14T06:08:38;4.82;;;4.40;;
4305;SDS011;2166;49.926;8.608;2023-05-14T06:11:06;5.18;;;4.43;;
4305;SDS011;2166;49.926;8.608;2023-05-14T06:13:36;6.60;;;4.18;;
4305;SDS011;2166;49.926;8.608;2023-05-14T06:16:06;5.32;;;3.65;;
4305;SDS011;2166;49.926;8.608;2023-05-14T06:18:35;3.92;;;3.53;;
4305;SDS011;2166;49.926;8.608;2023-05-14T06:21:03;4.85;;;3.28;;
4305;SDS011;2166;49.926;8.608;2023-05-14T06:23:32;5.28;;;2.90;;
4305;SDS011;2166;49.926;8.608;2023-05-14T06:26:01;3.33;;;3.00;;
4305;SDS011;2166;49.926;8.608;2023-05-14T06:28:30;3.55;;;2.78;;
4305;SDS011;2166;49.926;8.608;2023-05-14T06:31:00;3.35;;;2.60;;
4305;SDS011;2166;49.926;8.608;2023-05-14T06:33:28;4.72;;;2.92;;
4305;SDS011;2166;49.926;8.608;2023-05-14T06:35:57;4.30;;;2.42;;
4305;SDS011;2166;49.926;8.608;2023-05-14T06:38:26;4.43;;;2.30;;
4305;SDS011;2166;49.926;8.608;2023-05-14T06:40:54;2.53;;;1.98;;
4305;SDS011;2166;49.926;8.608;2023-05-14T06:43:23;3.03;;;2.22;;
4305;SDS011;2166;49.926;8.608;2023-05-14T06:45:51;5.18;;;2.10;;
4305;SDS011;2166;49.926;8.608;2023-05-14T06:48:21;2.30;;;2.05;;
4305;SDS011;2166;49.926;8.608;2023-05-14T06:50:50;4.95;;;2.83;;
4305;SDS011;2166;49.926;8.608;2023-05-14T06:53:18;2.63;;;2.13;;
4305;SDS011;2166;49.926;8.608;2023-05-14T06:55:47;2.20;;;1.90;;
4305;SDS011;2166;49.926;8.608;2023-05-14T06:58:15;2.17;;;1.92;;
4305;SDS011;2166;49.926;8.608;2023-05-14T07:00:43;3.25;;;2.20;;
4305;SDS011;2166;49.926;8.608;2023-05-14T07:03:11;2.20;;;1.95;;
4305;SDS011;2166;49.926;8.608;2023-05-14T07:05:43;4.40;;;2.08;;
4305;SDS011;2166;49.926;8.608;2023-05-14T07:08:12;2.45;;;2.25;;
4305;SDS011;2166;49.926;8.608;2023-05-14T07:10:40;2.20;;;2.00;;
4305;SDS011;2166;49.926;8.608;2023-05-14T07:13:08;2.67;;;2.13;;
4305;SDS011;2166;49.926;8.608;2023-05-14T07:15:37;2.25;;;1.95;;
4305;SDS011;2166;49.926;8.608;2023-05-14T07:18:07;6.22;;;2.47;;
4305;SDS011;2166;49.926;8.608;2023-05-14T07:20:36;3.10;;;2.25;;
4305;SDS011;2166;49.926;8.608;2023-05-14T07:23:06;3.63;;;2.38;;
4305;SDS011;2166;49.926;8.608;2023-05-14T07:25:36;1.98;;;1.77;;
4305;SDS011;2166;49.926;8.608;2023-05-14T07:28:05;3.03;;;1.60;;
4305;SDS011;2166;49.926;8.608;2023-05-14T07:30:34;3.45;;;2.70;;
4305;SDS011;2166;49.926;8.608;2023-05-14T07:33:02;2.95;;;2.38;;
4305;SDS011;2166;49.926;8.608;2023-05-14T07:35:31;2.60;;;2.40;;
4305;SDS011;2166;49.926;8.608;2023-05-14T07:38:01;2.53;;;2.10;;
4305;SDS011;2166;49.926;8.608;2023-05-14T07:40:33;2.75;;;2.05;;
4305;SDS011;2166;49.926;8.608;2023-05-14T07:43:01;2.13;;;1.92;;
4305;SDS011;2166;49.926;8.608;2023-05-14T07:45:30;4.15;;;2.38;;
4305;SDS011;2166;49.926;8.608;2023-05-14T07:47:58;5.75;;;2.33;;
4305;SDS011;2166;49.926;8.608;2023-05-14T07:50:27;3.03;;;2.17;;
4305;SDS011;2166;49.926;8.608;2023-05-14T07:52:56;2.65;;;2.05;;
4305;SDS011;2166;49.926;8.608;2023-05-14T07:55:25;2.70;;;2.25;;
4305;SDS011;2166;49.926;8.608;2023-05-14T07:57:55;4.43;;;3.13;;
4305;SDS011;2166;49.926;8.608;2023-05-14T08:00:24;2.20;;;1.85;;
4305;SDS011;2166;49.926;8.608;2023-05-14T08:02:53;2.67;;;2.17;;
4305;SDS011;2166;49.926;8.608;2023-05-14T08:05:22;2.60;;;2.20;;
4305;SDS011;2166;49.926;8.608;2023-05-14T08:07:52;3.28;;;2.20;;
4305;SDS011;2166;49.926;8.608;2023-05-14T08:10:20;2.75;;;2.20;;
4305;SDS011;2166;49.926;8.608;2023-05-14T08:12:49;3.83;;;2.45;;
4305;SDS011;2166;49.926;8.608;2023-05-14T08:15:19;3.00;;;2.05;;
4305;SDS011;2166;49.926;8.608;2023-05-14T08:17:49;2.72;;;2.40;;
4305;SDS011;2166;49.926;8.608;2023-05-14T08:20:18;3.65;;;1.98;;
4305;SDS011;2166;49.926;8.608;2023-05-14T08:22:50;3.40;;;2.30;;
4305;SDS011;2166;49.926;8.608;2023-05-14T08:25:19;2.10;;;1.90;;
4305;SDS011;2166;49.926;8.608;2023-05-14T08:27:48;2.38;;;2.17;;
4305;SDS011;2166;49.926;8.608;2023-05-14T08:30:17;2.58;;;2.20;;
4305;SDS011;2166;49.926;8.608;2023-05-14T08:32:48;2.63;;;2.20;;
4305;SDS011;2166;49.926;8.608;2023-05-14T08:35:18;2.67;;;2.17;;
4305;SDS011;2166;49.926;8.608;2023-05-14T08:37:46;2.55;;;1.88;;
4305;SDS011;2166;49.926;8.608;2023-05-14T08:40:17;2.53;;;1.77;;
4305;SDS011;2166;49.926;8.608;2023-05-14T08:42:46;4.28;;;2.30;;
4305;SDS011;2166;49.926;8.608;2023-05-14T08:45:23;2.97;;;2.00;;
4305;SDS011;2166;49.926;8.608;2023-05-14T08:47:58;2.33;;;2.00;;
4305;SDS011;2166;49.926;8.608;2023-05-14T08:50:28;2.10;;;1.90;;
4305;SDS011;2166;49.926;8.608;2023-05-14T08:52:57;3.70;;;2.28;;
4305;SDS011;2166;49.926;8.608;2023-05-14T08:55:26;4.63;;;2.42;;
4305;SDS011;2166;49.926;8.608;2023-05-14T08:57:57;2.30;;;2.10;;
4305;SDS011;2166;49.926;8.608;2023-05-14T09:00:26;3.85;;;2.05;;
4305;SDS011;2166;49.926;8.608;2023-05-14T09:02:56;6.60;;;2.17;;
4305;SDS011;2166;49.926;8.608;2023-05-14T09:05:26;2.50;;;2.25;;
4305;SDS011;2166;49.926;8.608;2023-05-14T09:07:55;3.80;;;2.15;;
4305;SDS011;2166;49.926;8.608;2023-05-14T09:10:26;5.75;;;2.20;;
4305;SDS011;2166;49.926;8.608;2023-05-14T09:12:55;3.15;;;2.33;;
4305;SDS011;2166;49.926;8.608;2023-05-14T09:15:24;3.30;;;2.10;;
4305;SDS011;2166;49.926;8.608;2023-05-14T09:17:58;2.80;;;2.17;;
4305;SDS011;2166;49.926;8.608;2023-05-14T09:20:27;2.83;;;2.00;;
4305;SDS011;2166;49.926;8.608;2023-05-14T09:22:57;3.85;;;2.10;;
4305;SDS011;2166;49.926;8.608;2023-05-14T09:25:29;4.47;;;2.30;;
4305;SDS011;2166;49.926;8.608;2023-05-14T09:27:59;2.53;;;2.10;;
4305;SDS011;2166;49.926;8.608;2023-05-14T09:30:50;3.53;;;2.25;;
4305;SDS011;2166;49.926;8.608;2023-05-14T09:33:26;2.08;;;1.73;;
4305;SDS011;2166;49.926;8.608;2023-05-14T09:35:57;2.00;;;1.80;;
4305;SDS011;2166;49.926;8.608;2023-05-14T09:38:27;2.53;;;1.73;;
4305;SDS011;2166;49.926;8.608;2023-05-14T09:40:57;2.17;;;1.88;;
4305;SDS011;2166;49.926;8.608;2023-05-14T09:43:27;1.98;;;1.77;;
4305;SDS011;2166;49.926;8.608;2023-05-14T09:45:56;2.38;;;2.15;;
4305;SDS011;2166;49.926;8.608;2023-05-14T09:48:26;3.63;;;1.85;;
4305;SDS011;2166;49.926;8.608;2023-05-14T09:50:55;2.13;;;1.92;;
4305;SDS011;2166;49.926;8.608;2023-05-14T09:53:23;3.38;;;1.83;;
4305;SDS011;2166;49.926;8.608;2023-05-14T09:55:55;2.45;;;2.05;;
4305;SDS011;2166;49.926;8.608;2023-05-14T09:58:25;2.15;;;1.70;;
4305;SDS011;2166;49.926;8.608;2023-05-14T10:00:54;1.80;;;1.63;;
4305;SDS011;2166;49.926;8.608;2023-05-14T10:03:28;4.55;;;1.73;;
4305;SDS011;2166;49.926;8.608;2023-05-14T10:06:03;1.88;;;1.77;;
4305;SDS011;2166;49.926;8.608;2023-05-14T10:08:36;3.05;;;1.80;;
4305;SDS011;2166;49.926;8.608;2023-05-14T10:11:10;2.38;;;1.75;;
4305;SDS011;2166;49.926;8.608;2023-05-14T10:13:45;2.15;;;1.50;;
4305;SDS011;2166;49.926;8.608;2023-05-14T10:16:24;3.00;;;1.80;;
4305;SDS011;2166;49.926;8.608;2023-05-14T10:19:04;1.90;;;1.70;;
4305;SDS011;2166;49.926;8.608;2023-05-14T10:21:35;3.97;;;1.67;;
4305;SDS011;2166;49.926;8.608;2023-05-14T10:24:05;2.67;;;1.80;;
4305;SDS011;2166;49.926;8.608;2023-05-14T10:26:35;5.68;;;2.40;;
4305;SDS011;2166;49.926;8.608;2023-05-14T10:29:08;1.90;;;1.70;;
4305;SDS011;2166;49.926;8.608;2023-05-14T10:31:47;3.05;;;2.47;;
4305;SDS011;2166;49.926;8.608;2023-05-14T10:34:36;2.25;;;1.85;;
4305;SDS011;2166;49.926;8.608;2023-05-14T10:37:07;2.40;;;2.20;;
4305;SDS011;2166;49.926;8.608;2023-05-14T10:39:44;2.17;;;1.98;;
4305;SDS011;2166;49.926;8.608;2023-05-14T10:42:15;2.47;;;2.03;;
4305;SDS011;2166;49.926;8.608;2023-05-14T10:44:46;1.95;;;1.75;;
4305;SDS011;2166;49.926;8.608;2023-05-14T10:47:17;2.33;;;2.00;;
4305;SDS011;2166;49.926;8.608;2023-05-14T10:49:48;2.10;;;2.00;;
4305;SDS011;2166;49.926;8.608;2023-05-14T10:52:18;2.00;;;1.80;;
4305;SDS011;2166;49.926;8.608;2023-05-14T10:54:49;2.03;;;1.90;;
4305;SDS011;2166;49.926;8.608;2023-05-14T10:57:18;2.33;;;1.98;;
4305;SDS011;2166;49.926;8.608;2023-05-14T10:59:49;5.55;;;2.05;;
4305;SDS011;2166;49.926;8.608;2023-05-14T11:02:22;3.50;;;2.10;;
4305;SDS011;2166;49.926;8.608;2023-05-14T11:04:55;4.20;;;1.80;;
4305;SDS011;2166;49.926;8.608;2023-05-14T11:07:30;1.67;;;1.58;;
4305;SDS011;2166;49.926;8.608;2023-05-14T11:10:03;2.30;;;1.98;;
4305;SDS011;2166;49.926;8.608;2023-05-14T11:12:34;3.92;;;1.60;;
4305;SDS011;2166;49.926;8.608;2023-05-14T11:15:05;6.82;;;2.33;;
4305;SDS011;2166;49.926;8.608;2023-05-14T11:17:36;3.95;;;1.90;;
4305;SDS011;2166;49.926;8.608;2023-05-14T11:20:09;2.22;;;1.80;;
4305;SDS011;2166;49.926;8.608;2023-05-14T11:22:39;3.00;;;2.10;;
4305;SDS011;2166;49.926;8.608;2023-05-14T11:25:10;2.95;;;2.15;;
4305;SDS011;2166;49.926;8.608;2023-05-14T11:27:41;1.92;;;1.75;;
4305;SDS011;2166;49.926;8.608;2023-05-14T11:30:12;3.60;;;1.80;;
4305;SDS011;2166;49.926;8.608;2023-05-14T11:32:43;1.85;;;1.65;;
4305;SDS011;2166;49.926;8.608;2023-05-14T11:35:14;1.88;;;1.77;;
4305;SDS011;2166;49.926;8.608;2023-05-14T11:37:48;5.18;;;1.73;;
4305;SDS011;2166;49.926;8.608;2023-05-14T11:40:18;2.63;;;1.53;;
4305;SDS011;2166;49.926;8.608;2023-05-14T11:42:49;1.67;;;1.50;;
4305;SDS011;2166;49.926;8.608;2023-05-14T11:45:23;2.03;;;1.85;;
4305;SDS011;2166;49.926;8.608;2023-05-14T11:47:56;1.45;;;1.35;;
4305;SDS011;2166;49.926;8.608;2023-05-14T11:53:43;1.73;;;1.50;;
4305;SDS011;2166;49.926;8.608;2023-05-14T11:56:12;1.17;;;1.08;;
4305;SDS011;2166;49.926;8.608;2023-05-14T11:58:54;2.03;;;1.20;;
4305;SDS011;2166;49.926;8.608;2023-05-14T12:01:23;2.05;;;1.42;;
4305;SDS011;2166;49.926;8.608;2023-05-14T12:03:58;3.75;;;1.30;;
4305;SDS011;2166;49.926;8.608;2023-05-14T12:06:30;1.33;;;1.17;;
4305;SDS011;2166;49.926;8.608;2023-05-14T12:09:18;1.67;;;1.52;;
4305;SDS011;2166;49.926;8.608;2023-05-14T12:11:48;1.67;;;1.55;;
4305;SDS011;2166;49.926;8.608;2023-05-14T12:14:19;1.85;;;1.50;;
4305;SDS011;2166;49.926;8.608;2023-05-14T12:16:51;2.35;;;1.45;;
4305;SDS011;2166;49.926;8.608;2023-05-14T12:19:29;2.53;;;1.50;;
4305;SDS011;2166;49.926;8.608;2023-05-14T12:22:14;6.03;;;1.73;;
4305;SDS011;2166;49.926;8.608;2023-05-14T12:24:52;2.17;;;1.50;;
4305;SDS011;2166;49.926;8.608;2023-05-14T12:27:22;2.30;;;1.23;;
4305;SDS011;2166;49.926;8.608;2023-05-14T12:29:59;1.30;;;1.20;;
4305;SDS011;2166;49.926;8.608;2023-05-14T12:32:45;1.40;;;1.30;;
4305;SDS011;2166;49.926;8.608;2023-05-14T12:35:32;4.30;;;1.37;;
4305;SDS011;2166;49.926;8.608;2023-05-14T12:38:14;1.15;;;1.05;;
4305;SDS011;2166;49.926;8.608;2023-05-14T12:41:00;1.38;;;1.05;;
4305;SDS011;2166;49.926;8.608;2023-05-14T12:43:28;1.58;;;1.48;;
4305;SDS011;2166;49.926;8.608;2023-05-14T12:45:57;2.15;;;1.52;;
4305;SDS011;2166;49.926;8.608;2023-05-14T12:48:26;1.50;;;1.40;;
4305;SDS011;2166;49.926;8.608;2023-05-14T12:50:56;1.33;;;1.23;;
4305;SDS011;2166;49.926;8.608;2023-05-14T12:53:26;2.65;;;1.40;;
4305;SDS011;2166;49.926;8.608;2023-05-14T12:55:55;0.93;;;0.90;;
4305;SDS011;2166;49.926;8.608;2023-05-14T12:58:27;1.58;;;1.40;;
4305;SDS011;2166;49.926;8.608;2023-05-14T13:00:56;3.85;;;1.25;;
4305;SDS011;2166;49.926;8.608;2023-05-14T13:03:25;1.83;;;1.50;;
4305;SDS011;2166;49.926;8.608;2023-05-14T13:05:57;3.33;;;1.50;;
4305;SDS011;2166;49.926;8.608;2023-05-14T13:08:27;2.30;;;1.52;;
4305;SDS011;2166;49.926;8.608;2023-05-14T13:10:56;2.90;;;1.35;;
4305;SDS011;2166;49.926;8.608;2023-05-14T13:13:28;1.60;;;1.20;;
4305;SDS011;2166;49.926;8.608;2023-05-14T13:16:04;1.55;;;1.20;;
4305;SDS011;2166;49.926;8.608;2023-05-14T13:18:33;1.83;;;1.30;;
4305;SDS011;2166;49.926;8.608;2023-05-14T13:21:03;0.90;;;0.90;;
4305;SDS011;2166;49.926;8.608;2023-05-14T13:23:32;1.50;;;1.10;;
4305;SDS011;2166;49.926;8.608;2023-05-14T13:26:02;2.20;;;1.23;;
4305;SDS011;2166;49.926;8.608;2023-05-14T13:28:33;1.13;;;1.02;;
4305;SDS011;2166;49.926;8.608;2023-05-14T13:31:03;2.45;;;1.20;;
4305;SDS011;2166;49.926;8.608;2023-05-14T13:33:34;1.52;;;1.23;;
4305;SDS011;2166;49.926;8.608;2023-05-14T13:36:04;2.63;;;1.63;;
4305;SDS011;2166;49.926;8.608;2023-05-14T13:38:34;1.38;;;1.00;;
4305;SDS011;2166;49.926;8.608;2023-05-14T13:41:03;1.10;;;0.98;;
4305;SDS011;2166;49.926;8.608;2023-05-14T13:43:34;1.20;;;1.10;;
4305;SDS011;2166;49.926;8.608;2023-05-14T13:46:05;1.17;;;0.80;;
4305;SDS011;2166;49.926;8.608;2023-05-14T13:48:45;1.45;;;1.00;;
4305;SDS011;2166;49.926;8.608;2023-05-14T13:51:35;1.20;;;0.80;;
4305;SDS011;2166;49.926;8.608;2023-05-14T13:54:37;1.05;;;0.70;;
4305;SDS011;2166;49.926;8.608;2023-05-14T13:57:40;1.00;;;0.90;;
4305;SDS011;2166;49.926;8.608;2023-05-14T14:03:55;1.55;;;0.80;;
4305;SDS011;2166;49.926;8.608;2023-05-14T14:06:25;1.27;;;1.00;;
4305;SDS011;2166;49.926;8.608;2023-05-14T14:08:55;1.95;;;0.95;;
4305;SDS011;2166;49.926;8.608;2023-05-14T14:11:24;0.90;;;0.70;;
4305;SDS011;2166;49.926;8.608;2023-05-14T14:13:57;0.90;;;0.70;;
4305;SDS011;2166;49.926;8.608;2023-05-14T14:16:26;1.00;;;0.90;;
4305;SDS011;2166;49.926;8.608;2023-05-14T14:19:01;1.75;;;0.90;;
4305;SDS011;2166;49.926;8.608;2023-05-14T14:21:29;1.13;;;1.05;;
4305;SDS011;2166;49.926;8.608;2023-05-14T14:23:59;4.20;;;1.60;;
4305;SDS011;2166;49.926;8.608;2023-05-14T14:26:31;1.17;;;1.00;;
4305;SDS011;2166;49.926;8.608;2023-05-14T14:29:02;1.42;;;1.10;;
4305;SDS011;2166;49.926;8.608;2023-05-14T14:31:31;0.75;;;0.75;;
4305;SDS011;2166;49.926;8.608;2023-05-14T14:34:02;1.98;;;1.10;;
4305;SDS011;2166;49.926;8.608;2023-05-14T14:36:33;1.20;;;1.10;;
4305;SDS011;2166;49.926;8.608;2023-05-14T14:39:03;1.20;;;1.08;;
4305;SDS011;2166;49.926;8.608;2023-05-14T14:41:33;1.23;;;1.13;;
4305;SDS011;2166;49.926;8.608;2023-05-14T14:44:06;1.10;;;1.00;;
4305;SDS011;2166;49.926;8.608;2023-05-14T14:46:35;2.15;;;0.98;;
4305;SDS011;2166;49.926;8.608;2023-05-14T14:49:06;1.65;;;0.95;;
4305;SDS011;2166;49.926;8.608;2023-05-14T14:51:35;1.90;;;1.00;;
4305;SDS011;2166;49.926;8.608;2023-05-14T14:54:03;1.38;;;0.98;;
4305;SDS011;2166;49.926;8.608;2023-05-14T14:56:32;1.25;;;0.90;;
4305;SDS011;2166;49.926;8.608;2023-05-14T14:59:02;2.10;;;0.90;;
4305;SDS011;2166;49.926;8.608;2023-05-14T15:01:31;1.50;;;0.98;;
4305;SDS011;2166;49.926;8.608;2023-05-14T15:04:00;0.90;;;0.77;;
4305;SDS011;2166;49.926;8.608;2023-05-14T15:06:31;1.50;;;0.82;;
4305;SDS011;2166;49.926;8.608;2023-05-14T15:09:02;3.88;;;1.27;;
4305;SDS011;2166;49.926;8.608;2023-05-14T15:11:32;1.48;;;1.30;;
4305;SDS011;2166;49.926;8.608;2023-05-14T15:14:03;0.90;;;0.80;;
4305;SDS011;2166;49.926;8.608;2023-05-14T15:16:33;2.10;;;1.08;;
4305;SDS011;2166;49.926;8.608;2023-05-14T15:19:02;1.42;;;1.20;;
4305;SDS011;2166;49.926;8.608;2023-05-14T15:21:34;1.08;;;0.90;;
4305;SDS011;2166;49.926;8.608;2023-05-14T15:24:03;1.30;;;1.10;;
4305;SDS011;2166;49.926;8.608;2023-05-14T15:26:32;4.85;;;1.20;;
4305;SDS011;2166;49.926;8.608;2023-05-14T15:29:04;2.05;;;1.10;;
4305;SDS011;2166;49.926;8.608;2023-05-14T15:31:36;4.10;;;1.40;;
4305;SDS011;2166;49.926;8.608;2023-05-14T15:34:04;1.50;;;1.20;;
4305;SDS011;2166;49.926;8.608;2023-05-14T15:36:41;1.95;;;1.10;;
4305;SDS011;2166;49.926;8.608;2023-05-14T15:39:10;1.35;;;1.10;;